createdAt,value
2022-12-05T00:00:44.730Z,6.7
2022-12-05T00:07:04.643Z,6.7
2022-12-05T00:13:27.677Z,8.7
2022-12-05T00:19:49.054Z,8.7
2022-12-05T00:26:10.627Z,7.4
2022-12-05T00:32:30.512Z,7.4
2022-12-05T00:38:53.681Z,8.1
2022-12-05T00:45:13.642Z,8.1
2022-12-05T00:51:36.642Z,9.6
2022-12-05T00:57:56.488Z,9.6
2022-12-05T01:04:19.502Z,6
2022-12-05T01:10:39.658Z,6
2022-12-05T01:17:02.783Z,9.9
2022-12-05T01:23:22.639Z,9.9
2022-12-05T01:29:45.606Z,12.9
2022-12-05T01:36:05.636Z,12.9
2022-12-05T01:42:28.592Z,6.6
2022-12-05T01:48:48.592Z,6.6
2022-12-05T01:55:11.730Z,9.3
2022-12-05T02:01:31.618Z,9.3
2022-12-05T02:07:54.688Z,12.5
2022-12-05T02:14:14.554Z,12.5
2022-12-05T02:20:37.580Z,8.3
2022-12-05T02:26:57.548Z,8.3
2022-12-05T02:33:20.769Z,7.9
2022-12-05T02:39:40.555Z,7.9
2022-12-05T02:46:03.623Z,7.9
2022-12-05T02:52:23.515Z,7.9
2022-12-05T02:58:46.733Z,9.5
2022-12-05T03:05:06.503Z,9.5
2022-12-05T03:11:29.582Z,4.9
2022-12-05T03:17:49.461Z,4.9
2022-12-05T03:24:12.522Z,5.7
2022-12-05T03:30:32.595Z,5.7
2022-12-05T03:36:55.600Z,5.9
2022-12-05T03:43:15.513Z,5.9
2022-12-05T03:49:38.533Z,6.5
2022-12-05T03:55:58.538Z,6.5
2022-12-05T04:02:21.587Z,6.1
2022-12-05T04:08:41.537Z,6.1
2022-12-05T04:24:15.422Z,4.6
2022-12-05T04:30:35.555Z,4.6
2022-12-05T04:36:58.504Z,5.6
2022-12-05T04:43:18.489Z,5.6
2022-12-05T04:49:41.534Z,10.3
2022-12-05T04:56:01.657Z,10.3
2022-12-05T05:02:24.789Z,9.1
2022-12-05T05:08:44.524Z,9.1
2022-12-05T05:15:07.802Z,3.9
2022-12-05T05:21:27.529Z,3.9
2022-12-05T05:27:50.470Z,4.7
2022-12-05T05:34:10.548Z,4.7
2022-12-05T05:40:33.671Z,5.7
2022-12-05T05:46:53.679Z,5.7
2022-12-05T05:53:16.656Z,6.7
2022-12-05T05:59:36.615Z,6.7
2022-12-05T06:05:59.633Z,6.1
2022-12-05T06:12:19.540Z,6.1
2022-12-05T06:18:42.639Z,6.5
2022-12-05T06:25:02.594Z,6.5
2022-12-05T06:31:25.678Z,5.3
2022-12-05T06:37:45.702Z,5.3
2022-12-05T06:44:08.561Z,4.5
2022-12-05T06:50:28.610Z,4.5
2022-12-05T06:56:51.666Z,3.3
2022-12-05T07:03:11.504Z,3.3
2022-12-05T07:09:34.505Z,6.2
2022-12-05T07:15:54.528Z,6.2
2022-12-05T07:22:17.492Z,2.8
2022-12-05T07:28:37.525Z,2.8
2022-12-05T07:35:00.591Z,3.5
2022-12-05T07:41:20.492Z,3.5
2022-12-05T07:47:43.668Z,5.7
2022-12-05T07:54:03.537Z,5.7
2022-12-05T08:00:26.597Z,5.3
2022-12-05T08:06:46.685Z,5.3
2022-12-05T08:13:09.720Z,2.3
2022-12-05T08:19:29.565Z,2.3
2022-12-05T08:25:52.631Z,3.8
2022-12-05T08:32:12.521Z,3.8
2022-12-05T08:38:35.484Z,4.1
2022-12-05T08:44:55.724Z,4.1
2022-12-05T08:51:18.865Z,3.3
2022-12-05T08:57:38.568Z,3.3
2022-12-05T09:04:01.582Z,7.1
2022-12-05T09:10:21.715Z,7.1
2022-12-05T09:33:09.469Z,11.6
2022-12-05T09:39:29.484Z,11.6
2022-12-05T09:45:52.509Z,13.4
2022-12-05T09:52:12.580Z,13.4
2022-12-05T09:58:35.749Z,6.1
2022-12-05T10:05:00.076Z,6.1
2022-12-05T10:11:18.680Z,8.4
2022-12-05T10:17:38.484Z,8.4
2022-12-05T10:24:01.516Z,9.6
2022-12-05T10:30:21.653Z,9.6
2022-12-05T10:36:44.737Z,6.6
2022-12-05T10:43:04.961Z,6.6
2022-12-05T10:49:27.998Z,5.4
2022-12-05T10:56:06.838Z,5.4
2022-12-05T11:02:10.558Z,7.7
2022-12-05T11:09:02.316Z,7.7
2022-12-05T11:14:53.602Z,7.6
2022-12-05T11:21:13.850Z,7.6
2022-12-05T11:27:36.860Z,9.2
2022-12-05T11:34:00.539Z,9.2
2022-12-05T11:40:22.710Z,5.4
2022-12-05T11:46:39.550Z,5.4
2022-12-05T11:53:02.519Z,7.9
2022-12-05T11:59:22.565Z,7.9
2022-12-05T12:05:45.733Z,7.4
2022-12-05T12:12:05.680Z,7.4
2022-12-05T12:18:28.533Z,6.1
2022-12-05T12:24:48.873Z,6.1
2022-12-05T12:31:11.842Z,7.4
2022-12-05T12:37:31.600Z,7.4
2022-12-05T12:43:54.848Z,5.5
2022-12-05T12:50:14.553Z,5.5
2022-12-05T12:56:37.474Z,8.9
2022-12-05T13:02:57.630Z,8.9
2022-12-05T13:09:20.542Z,7.7
2022-12-05T13:15:41.340Z,7.7
2022-12-05T13:22:04.815Z,6
2022-12-05T13:28:26.133Z,6
2022-12-05T13:34:47.576Z,5.3
2022-12-05T13:41:07.523Z,5.3
2022-12-05T13:47:30.700Z,6.1
2022-12-05T13:53:50.645Z,6.1
2022-12-05T14:00:13.508Z,4.9
2022-12-05T14:06:33.523Z,4.9
2022-12-05T14:12:57.131Z,6.3
2022-12-05T14:37:42.406Z,7.8
2022-12-05T14:44:03.850Z,7.8
2022-12-05T14:50:23.634Z,7
2022-12-05T14:56:43.572Z,7
2022-12-05T15:03:06.652Z,5.6
2022-12-05T15:09:39.702Z,5.6
2022-12-05T15:15:50.891Z,6.2
2022-12-05T15:22:10.886Z,6.2
2022-12-05T15:28:33.651Z,5.8
2022-12-05T15:34:53.977Z,5.8
2022-12-05T15:41:16.833Z,6.7
2022-12-05T15:47:36.487Z,6.7
2022-12-05T15:53:59.534Z,9.6
2022-12-05T16:00:19.508Z,9.6
2022-12-05T16:06:42.500Z,8.8
2022-12-05T16:13:02.504Z,8.8
2022-12-05T16:19:25.581Z,10.9
2022-12-05T16:25:45.515Z,10.9
2022-12-05T16:32:08.497Z,11.6
2022-12-05T16:38:28.623Z,11.6
2022-12-05T16:44:51.466Z,11.5
2022-12-05T16:51:11.626Z,11.5
2022-12-05T16:57:34.621Z,5.7
2022-12-05T17:03:54.709Z,5.7
2022-12-05T17:10:17.629Z,11.6
2022-12-05T17:16:37.522Z,11.6
2022-12-05T17:23:00.596Z,9.9
2022-12-05T17:29:20.651Z,9.9
2022-12-05T17:35:43.651Z,11.5
2022-12-05T17:42:03.680Z,11.5
2022-12-05T17:48:26.604Z,8.9
2022-12-05T17:54:46.639Z,8.9
2022-12-05T18:01:09.614Z,9
2022-12-05T18:07:29.511Z,9
2022-12-05T18:13:52.532Z,7.7
2022-12-05T18:20:12.737Z,7.7
2022-12-05T18:26:35.632Z,11.6
2022-12-05T18:32:55.532Z,11.6
2022-12-05T18:39:18.512Z,11.7
2022-12-05T18:45:38.572Z,11.7
2022-12-05T18:52:01.494Z,7.5
2022-12-05T18:58:21.462Z,7.5
2022-12-05T19:04:44.625Z,4
2022-12-05T19:11:04.830Z,4
2022-12-05T19:17:27.600Z,7.7
2022-12-05T19:23:47.696Z,7.7
2022-12-05T19:47:38.498Z,18.3
2022-12-05T19:54:01.471Z,18.3
2022-12-05T20:00:21.509Z,18.3
2022-12-05T20:06:44.478Z,8.2
2022-12-05T20:13:08.822Z,8.2
2022-12-05T20:19:27.670Z,9.1
2022-12-05T20:25:47.560Z,9.1
2022-12-05T20:32:10.500Z,9.8
2022-12-05T20:38:30.622Z,9.8
2022-12-05T20:44:53.628Z,10
2022-12-05T20:51:13.707Z,10
2022-12-05T20:57:36.549Z,7.6
2022-12-05T21:03:56.535Z,7.6
2022-12-05T21:10:19.495Z,5.2
2022-12-05T21:16:39.685Z,5.2
2022-12-05T21:23:02.768Z,7.3
2022-12-05T21:29:22.510Z,7.3
2022-12-05T21:35:45.644Z,8.2
2022-12-05T21:42:05.870Z,8.2
2022-12-05T21:48:28.571Z,7.9
2022-12-05T21:54:48.713Z,7.9
2022-12-05T22:01:11.677Z,7.9
2022-12-05T22:07:32.020Z,7.9
2022-12-05T22:13:54.602Z,4.6
2022-12-05T22:20:14.556Z,4.6
2022-12-05T22:26:37.534Z,6.7
2022-12-05T22:32:57.581Z,6.7
2022-12-05T22:39:20.595Z,5.4
2022-12-05T22:45:40.580Z,5.4
2022-12-05T22:52:03.660Z,8.3
2022-12-05T22:58:23.729Z,8.3
2022-12-05T23:22:41.530Z,17.8
2022-12-05T23:29:01.472Z,17.8
2022-12-05T23:35:24.501Z,17.8
2022-12-05T23:41:44.561Z,17.8
2022-12-05T23:48:07.710Z,6.6
2022-12-05T23:54:27.695Z,6.6
